M I D A S
Marine Information and Data Acquisition System
Tripno 1888 of the Zeeleeuw from 2010-05-27 06:36:30 to 2010-05-27 13:59:45
Back to CruiseResearch ActivitiesStationsMapUnderway DataData graphs

EquipmentUnitsComment
TimeDGPSUTC
LatitudeDGPSDM.mWGS84
LongitudeDGPSDM.mWGS84
HeadingGyrodeg 
SOGDGPSknotsSpeed over ground
COGDGPSdegCourse over ground
DepthEcho soundermeters200 kHz
Missing or incorrect values are displayed as -999
Navigation data collected by the RV Zeeleeuw from 2010-05-27 06:23:34 to 2010-05-27 13:57:33
                                                                                    Next 1000 lines
Time Latitude Longitude Heading SOG COG Depth
2010-05-27 06:23:44 51°13.662 2°55.956 110.3 1 292 4.6
2010-05-27 06:23:49 51°13.662 2°55.952 110.4 1.5 289 4.6
2010-05-27 06:23:54 51°13.664 2°55.948 110 1.9 293 4.8
2010-05-27 06:23:58 51°13.664 2°55.944 109.7 2.2 290 -999
2010-05-27 06:24:04 51°13.666 2°55.938 109.3 2.6 291 -999
2010-05-27 06:24:10 51°13.668 2°55.931 108.9 2.9 290 -999
2010-05-27 06:24:15 51°13.669 2°55.924 108.1 3.1 289 -999
2010-05-27 06:24:21 51°13.67 2°55.916 106.4 3.2 285 -999
2010-05-27 06:24:26 51°13.671 2°55.91 104.9 3.1 282 -999
2010-05-27 06:24:31 51°13.672 2°55.903 102.8 3.2 283 -999
2010-05-27 06:24:36 51°13.673 2°55.895 101.8 3.3 282 -999
2010-05-27 06:24:42 51°13.674 2°55.887 101.7 3.4 282 -999
2010-05-27 06:24:46 51°13.675 2°55.881 101.8 3.6 283 -999
2010-05-27 06:24:52 51°13.676 2°55.871 102.1 3.7 283 -999
2010-05-27 06:24:56 51°13.677 2°55.864 102.4 3.9 284 -999
2010-05-27 06:25:02 51°13.679 2°55.854 102.5 4 285 -999
2010-05-27 06:25:06 51°13.68 2°55.847 102.5 4 283 -999
2010-05-27 06:25:12 51°13.681 2°55.838 102 3.9 284 -999
2010-05-27 06:25:17 51°13.683 2°55.829 101.3 3.8 283 -999
2010-05-27 06:25:22 51°13.684 2°55.821 100.2 3.7 283 -999
2010-05-27 06:25:27 51°13.685 2°55.814 98.9 3.6 281 -999
2010-05-27 06:25:32 51°13.686 2°55.806 97.3 3.5 281 -999
2010-05-27 06:25:37 51°13.686 2°55.799 95.5 3.4 279 -999
2010-05-27 06:25:42 51°13.687 2°55.792 93.5 3.2 277 -999
2010-05-27 06:25:47 51°13.687 2°55.785 91.6 3.1 275 4.5
2010-05-27 06:25:51 51°13.687 2°55.78 90.2 3 274 -999
2010-05-27 06:25:56 51°13.688 2°55.773 89.3 2.9 273 4.7
2010-05-27 06:26:01 51°13.688 2°55.767 88.2 2.8 271 10.8
2010-05-27 06:26:06 51°13.688 2°55.761 87.1 2.6 272 10.9
2010-05-27 06:26:11 51°13.688 2°55.757 85.7 2.3 268 10.6
2010-05-27 06:26:16 51°13.688 2°55.752 84.3 2.1 270 10
2010-05-27 06:26:20 51°13.688 2°55.749 82.5 1.8 270 9.8
2010-05-27 06:26:25 51°13.687 2°55.746 80.7 1.3 269 10
2010-05-27 06:26:30 51°13.688 2°55.744 78.6 1 275 10.2
2010-05-27 06:26:35 51°13.688 2°55.742 75.5 0.9 274 10.4
2010-05-27 06:26:40 51°13.688 2°55.74 72.3 0.7 275 10.4
2010-05-27 06:26:45 51°13.688 2°55.739 69.2 0.7 274 10.5
2010-05-27 06:26:49 51°13.688 2°55.738 66.4 0.6 273 10.6
2010-05-27 06:26:54 51°13.688 2°55.737 63.9 0.5 279 10.7
2010-05-27 06:26:59 51°13.688 2°55.736 61.1 0.4 278 10.8
2010-05-27 06:27:04 51°13.688 2°55.736 58.9 0.4 291 10.8
2010-05-27 06:27:09 51°13.688 2°55.735 57.2 0.3 307 10.9
2010-05-27 06:27:14 51°13.688 2°55.735 55.1 0.3 325 11
2010-05-27 06:27:19 51°13.689 2°55.734 53 0.4 337 11.1
2010-05-27 06:27:23 51°13.689 2°55.734 50.2 0.4 353 11
2010-05-27 06:27:27 51°13.69 2°55.734 48.1 0.4 358 11.1
2010-05-27 06:27:33 51°13.691 2°55.734 45.7 0.5 1 11.3
2010-05-27 06:27:38 51°13.691 2°55.734 42.9 0.6 6 11.3
2010-05-27 06:27:43 51°13.692 2°55.734 40.1 0.7 7 11.4
2010-05-27 06:27:47 51°13.693 2°55.735 36.5 0.9 15 11.3
2010-05-27 06:27:53 51°13.695 2°55.735 34 1 12 11.2
2010-05-27 06:27:58 51°13.697 2°55.736 30.2 1.2 10 11.1
2010-05-27 06:28:03 51°13.698 2°55.736 26.2 1.4 10 10.9
2010-05-27 06:28:08 51°13.701 2°55.737 22.1 1.5 7 11
2010-05-27 06:28:13 51°13.703 2°55.737 17.8 1.7 6 11.1
2010-05-27 06:28:18 51°13.706 2°55.737 13.3 1.9 3 11
2010-05-27 06:28:23 51°13.708 2°55.737 8.8 2.1 358 11.4
2010-05-27 06:28:27 51°13.711 2°55.737 3.9 2.3 355 11.7
2010-05-27 06:28:33 51°13.715 2°55.736 359.3 2.4 352 11.7
2010-05-27 06:28:39 51°13.719 2°55.734 354.4 2.6 347 11.6
2010-05-27 06:28:43 51°13.722 2°55.733 349.3 2.8 345 11.3
2010-05-27 06:28:47 51°13.725 2°55.731 344.5 3 340 11.1
2010-05-27 06:28:53 51°13.73 2°55.728 340.7 3.3 338 10.5
2010-05-27 06:28:58 51°13.735 2°55.725 339 3.5 337 10.4
2010-05-27 06:29:03 51°13.74 2°55.721 337.2 3.8 336 10.2
2010-05-27 06:29:08 51°13.744 2°55.717 335.8 4 334 9.9
2010-05-27 06:29:13 51°13.75 2°55.713 334.6 4.2 333 9.5
2010-05-27 06:29:18 51°13.755 2°55.709 333.5 4.4 332 9.3
2010-05-27 06:29:23 51°13.761 2°55.704 332.5 4.6 331 9.4
2010-05-27 06:29:27 51°13.765 2°55.7 331.4 4.8 329 9.3
2010-05-27 06:29:33 51°13.772 2°55.693 330.4 4.9 328 9.3
2010-05-27 06:29:39 51°13.779 2°55.686 329.5 5.1 328 9.6
2010-05-27 06:29:43 51°13.784 2°55.681 328.6 5.3 327 10.1
2010-05-27 06:29:47 51°13.789 2°55.676 328.3 5.4 328 9.8
2010-05-27 06:29:53 51°13.797 2°55.668 328.7 5.6 328 9.7
2010-05-27 06:29:58 51°13.804 2°55.662 329.6 5.7 330 9.8
2010-05-27 06:30:03 51°13.811 2°55.655 330.9 5.8 331 9.7
2010-05-27 06:30:08 51°13.818 2°55.649 332.3 5.9 333 9.7
2010-05-27 06:30:14 51°13.827 2°55.642 333.8 6 334 9.7
2010-05-27 06:30:18 51°13.834 2°55.638 335.4 6.1 336 9.7
2010-05-27 06:30:23 51°13.842 2°55.633 337.3 6.1 337 9.7
2010-05-27 06:30:28 51°13.85 2°55.628 338.9 6.2 338 9.7
2010-05-27 06:30:33 51°13.858 2°55.622 339.5 6.3 338 9.7
2010-05-27 06:30:39 51°13.867 2°55.616 339.6 6.3 338 9.7
2010-05-27 06:30:43 51°13.874 2°55.611 339 6.4 337 9.7
2010-05-27 06:30:48 51°13.882 2°55.606 338.4 6.4 336 9.6
2010-05-27 06:30:53 51°13.89 2°55.6 337.9 6.5 336 9.7
2010-05-27 06:30:59 51°13.9 2°55.592 337.4 6.6 335 9.8
2010-05-27 06:31:04 51°13.908 2°55.586 336.9 6.6 335 9.8
2010-05-27 06:31:08 51°13.915 2°55.581 336.5 6.7 335 9.7
2010-05-27 06:31:13 51°13.924 2°55.575 336.4 6.9 335 9.8
2010-05-27 06:31:18 51°13.933 2°55.568 336.5 7.2 335 9.8
2010-05-27 06:31:23 51°13.942 2°55.561 336.9 7.4 336 9.7
2010-05-27 06:31:28 51°13.952 2°55.554 337.6 7.6 336 9.6
2010-05-27 06:31:33 51°13.962 2°55.547 338.3 7.9 337 9.7
2010-05-27 06:31:38 51°13.972 2°55.54 338.7 8.1 337 9.6
2010-05-27 06:31:43 51°13.983 2°55.533 338.4 8.4 337 9.6
2010-05-27 06:31:48 51°13.993 2°55.525 337.8 8.5 336 9.6
2010-05-27 06:31:53 51°14.005 2°55.518 337.9 8.7 337 9.6
2010-05-27 06:31:58 51°14.016 2°55.511 340.4 8.9 340 9.7
2010-05-27 06:32:03 51°14.028 2°55.504 341.5 9 339 9.6
2010-05-27 06:32:08 51°14.04 2°55.497 342.1 9 341 9.6
2010-05-27 06:32:13 51°14.052 2°55.491 343.3 9.1 341 9.6
2010-05-27 06:32:18 51°14.064 2°55.485 344.5 9.2 343 9.6
2010-05-27 06:32:23 51°14.076 2°55.478 344.8 9.3 342 9.6
2010-05-27 06:32:28 51°14.088 2°55.471 344.1 9.3 341 9.6
2010-05-27 06:32:33 51°14.1 2°55.464 343.4 9.4 340 9.6
2010-05-27 06:32:38 51°14.113 2°55.457 342.7 9.4 339 9.5
2010-05-27 06:32:44 51°14.127 2°55.447 342 9.5 338 -999
2010-05-27 06:32:48 51°14.137 2°55.441 339.7 9.5 336 9.5
2010-05-27 06:32:54 51°14.151 2°55.429 336.6 9.4 333 9.3
2010-05-27 06:32:59 51°14.162 2°55.419 334.1 9.4 331 9.3
2010-05-27 06:33:04 51°14.174 2°55.409 332.5 9.5 330 9.2
2010-05-27 06:33:08 51°14.183 2°55.4 331.6 9.5 329 9.3
2010-05-27 06:33:14 51°14.196 2°55.387 330.6 9.5 329 -999
2010-05-27 06:33:19 51°14.208 2°55.376 330.3 9.5 328 9
2010-05-27 06:33:24 51°14.219 2°55.364 330.1 9.5 327 9.1
2010-05-27 06:33:28 51°14.227 2°55.355 329.2 9.5 326 8.9
2010-05-27 06:33:33 51°14.238 2°55.342 327.6 9.5 325 8.8
2010-05-27 06:33:38 51°14.248 2°55.33 326.2 9.4 324 8.9
2010-05-27 06:33:43 51°14.259 2°55.317 325.6 9.4 324 8.9
2010-05-27 06:33:48 51°14.269 2°55.305 325.5 9.4 324 9
2010-05-27 06:33:53 51°14.28 2°55.293 325.6 9.3 324 9.2
2010-05-27 06:33:58 51°14.29 2°55.281 326.3 9.4 325 9.2
2010-05-27 06:34:03 51°14.301 2°55.269 327.3 9.5 327 9.3
2010-05-27 06:34:08 51°14.312 2°55.258 328.8 9.5 327 9.4
2010-05-27 06:34:13 51°14.324 2°55.247 330 9.5 327 9.3
2010-05-27 06:34:18 51°14.334 2°55.234 329.1 9.6 324 9.4
2010-05-27 06:34:24 51°14.347 2°55.218 326.3 9.6 322 9.4
2010-05-27 06:34:28 51°14.355 2°55.207 323.5 9.6 320 9
2010-05-27 06:34:33 51°14.365 2°55.193 321.6 9.8 319 9.2
2010-05-27 06:34:38 51°14.376 2°55.178 320.2 10 317 9.3
2010-05-27 06:34:43 51°14.386 2°55.162 319.7 10.2 318 9
2010-05-27 06:34:48 51°14.396 2°55.146 318.1 10.4 315 9.1
2010-05-27 06:34:53 51°14.406 2°55.129 316.2 10.6 315 9.3
2010-05-27 06:34:58 51°14.417 2°55.114 317.2 10.6 318 9.2
2010-05-27 06:35:03 51°14.429 2°55.098 319.4 10.7 319 9.1
2010-05-27 06:35:08 51°14.441 2°55.085 322.2 10.8 323 9.2
2010-05-27 06:35:13 51°14.453 2°55.071 326 10.9 327 9.2
2010-05-27 06:35:18 51°14.466 2°55.058 328.6 10.9 327 10.1
2010-05-27 06:35:23 51°14.479 2°55.046 329.6 11.1 328 9.7
2010-05-27 06:35:28 51°14.492 2°55.032 329.5 11.1 326 9.6
2010-05-27 06:35:33 51°14.504 2°55.016 327.6 11.3 321 9.6
2010-05-27 06:35:38 51°14.516 2°55 325.3 11.5 319 9.8
2010-05-27 06:35:43 51°14.528 2°54.982 323.8 11.6 317 10.3
2010-05-27 06:35:48 51°14.539 2°54.964 322.5 11.7 315 10.4
2010-05-27 06:35:53 51°14.551 2°54.945 321.5 11.8 314 10.2
2010-05-27 06:35:58 51°14.563 2°54.927 321.7 11.8 316 10.2
2010-05-27 06:36:03 51°14.575 2°54.909 324.4 11.8 318 10.1
2010-05-27 06:36:08 51°14.588 2°54.894 327.8 11.7 322 10.3
2010-05-27 06:36:13 51°14.6 2°54.877 330.1 11.8 322 10
2010-05-27 06:36:18 51°14.613 2°54.862 330.6 11.8 323 10.1
2010-05-27 06:36:24 51°14.629 2°54.842 330.9 11.9 322 10.3
2010-05-27 06:36:28 51°14.639 2°54.829 330.3 12 321 10.2
2010-05-27 06:36:33 51°14.652 2°54.812 329.1 12.1 320 10.3
2010-05-27 06:36:38 51°14.665 2°54.794 328 12.1 318 10.4
2010-05-27 06:36:43 51°14.677 2°54.775 326.7 12.3 317 10.3
2010-05-27 06:36:48 51°14.69 2°54.756 324.8 12.5 316 10
2010-05-27 06:36:53 51°14.702 2°54.735 323.1 12.5 313 8.4
2010-05-27 06:36:58 51°14.714 2°54.716 322.3 12.4 315 8.5
2010-05-27 06:37:03 51°14.726 2°54.698 323.3 12.2 317 8.5
2010-05-27 06:37:08 51°14.739 2°54.681 325.6 12.1 319 8.5
2010-05-27 06:37:13 51°14.752 2°54.664 328.9 12.3 323 8.4
2010-05-27 06:37:18 51°14.766 2°54.648 331.6 12.4 325 8.5
2010-05-27 06:37:23 51°14.781 2°54.633 333.2 12.5 324 8.4
2010-05-27 06:37:28 51°14.794 2°54.616 332.4 12.5 322 8.1
2010-05-27 06:37:33 51°14.807 2°54.598 329.7 12.5 320 8.2
2010-05-27 06:37:38 51°14.82 2°54.579 327.2 12.7 317 9.4
2010-05-27 06:37:43 51°14.833 2°54.559 324.2 12.8 317 8.9
2010-05-27 06:37:48 51°14.846 2°54.54 323.8 12.9 317 8.3
2010-05-27 06:37:53 51°14.86 2°54.522 326.1 12.9 320 7.9
2010-05-27 06:37:58 51°14.874 2°54.505 329.5 12.7 324 8.2
2010-05-27 06:38:03 51°14.889 2°54.489 331.8 12.7 325 8
2010-05-27 06:38:08 51°14.903 2°54.473 332.8 12.7 325 8.4
2010-05-27 06:38:13 51°14.918 2°54.457 333.9 12.7 326 8.3
2010-05-27 06:38:18 51°14.933 2°54.442 334.3 12.8 327 8.6
2010-05-27 06:38:23 51°14.948 2°54.428 335.5 12.7 331 8.5
2010-05-27 06:38:28 51°14.963 2°54.414 337.6 12.7 332 7.4
2010-05-27 06:38:33 51°14.978 2°54.401 338.1 12.4 332 7.4
2010-05-27 06:38:38 51°14.993 2°54.389 339.7 12.1 332 5.5
2010-05-27 06:38:43 51°15.008 2°54.377 340.5 12 334 7.9
2010-05-27 06:38:48 51°15.024 2°54.365 341.9 12.2 335 8
2010-05-27 06:38:53 51°15.039 2°54.353 342.7 12.3 334 8.1
2010-05-27 06:38:58 51°15.055 2°54.342 343.3 12.4 335 8.4
2010-05-27 06:39:03 51°15.07 2°54.329 342.8 12.6 333 8.4
2010-05-27 06:39:08 51°15.086 2°54.316 341.1 12.7 332 8.5
2010-05-27 06:39:13 51°15.102 2°54.302 340.4 12.8 331 8.5
2010-05-27 06:39:18 51°15.117 2°54.287 339.2 12.9 329 8.6
2010-05-27 06:39:23 51°15.132 2°54.272 337.5 13 328 8.6
2010-05-27 06:39:28 51°15.147 2°54.256 336.4 13 327 8.9
2010-05-27 06:39:33 51°15.162 2°54.24 335.8 13 327 8.7
2010-05-27 06:39:38 51°15.177 2°54.224 335 12.9 326 8.6
2010-05-27 06:39:43 51°15.192 2°54.209 334.6 13 327 8.9
2010-05-27 06:39:48 51°15.207 2°54.193 334.5 13 327 9
2010-05-27 06:39:53 51°15.223 2°54.178 334.4 13.1 328 9.1
2010-05-27 06:39:58 51°15.238 2°54.162 334.5 13.1 327 8.9
2010-05-27 06:40:03 51°15.253 2°54.146 334 13 326 8.8
2010-05-27 06:40:08 51°15.268 2°54.129 333.7 13.1 326 8.9
2010-05-27 06:40:13 51°15.282 2°54.113 333.6 13.1 325 9.1
2010-05-27 06:40:18 51°15.297 2°54.096 333.2 13.1 325 9.1
2010-05-27 06:40:23 51°15.312 2°54.08 333.2 13 325 9
2010-05-27 06:40:28 51°15.327 2°54.063 333.6 13 325 9
2010-05-27 06:40:33 51°15.342 2°54.046 333.2 13.1 324 9.3
2010-05-27 06:40:38 51°15.357 2°54.029 332.5 13.1 324 9.2
2010-05-27 06:40:43 51°15.371 2°54.011 331.6 13.1 323 9.3
2010-05-27 06:40:48 51°15.386 2°53.994 331.1 13.2 323 9.5
2010-05-27 06:40:53 51°15.4 2°53.976 331 13.2 322 9.4
2010-05-27 06:40:58 51°15.414 2°53.958 330.8 13.2 323 9.4
2010-05-27 06:41:03 51°15.429 2°53.94 330.6 13.1 323 9.4
2010-05-27 06:41:08 51°15.444 2°53.923 330.8 13.1 323 9.4
2010-05-27 06:41:13 51°15.458 2°53.906 330.9 13.2 324 9.7
2010-05-27 06:41:18 51°15.473 2°53.888 331 13.2 323 9.7
2010-05-27 06:41:23 51°15.487 2°53.871 331.2 13.1 323 9.4
2010-05-27 06:41:28 51°15.502 2°53.853 330.8 13.2 322 9.6
2010-05-27 06:41:32 51°15.513 2°53.839 330.6 13.2 323 9.6
2010-05-27 06:41:38 51°15.531 2°53.818 330.5 13.1 323 9.6
2010-05-27 06:41:43 51°15.545 2°53.801 330.7 13.1 323 9.8
2010-05-27 06:41:48 51°15.56 2°53.783 330.8 13.1 323 9.8
2010-05-27 06:41:53 51°15.574 2°53.766 330.8 13.1 323 9.7
2010-05-27 06:41:57 51°15.586 2°53.752 330.8 13.1 323 10
2010-05-27 06:42:03 51°15.603 2°53.73 330.8 13.2 323 9.9
2010-05-27 06:42:09 51°15.621 2°53.709 330.8 13.2 322 9.8
2010-05-27 06:42:13 51°15.632 2°53.695 330.6 13.2 323 10
2010-05-27 06:42:18 51°15.647 2°53.678 330.6 13.2 323 10
2010-05-27 06:42:24 51°15.664 2°53.657 330.9 13.1 324 10.1
2010-05-27 06:42:29 51°15.679 2°53.64 331.1 13.1 323 10
2010-05-27 06:42:33 51°15.69 2°53.625 331.1 13.1 322 10.3
2010-05-27 06:42:38 51°15.705 2°53.608 330.3 13.2 323 10.3
2010-05-27 06:42:43 51°15.719 2°53.59 330.2 13.2 322 10.3
2010-05-27 06:42:48 51°15.734 2°53.573 330.5 13.2 323 10.1
2010-05-27 06:42:53 51°15.748 2°53.555 330.6 13.1 322 10.4
2010-05-27 06:42:57 51°15.76 2°53.541 330.6 13.2 322 10.5
2010-05-27 06:43:03 51°15.777 2°53.52 330.7 13.2 323 10.2
2010-05-27 06:43:09 51°15.795 2°53.5 331.1 13.1 324 10.4
2010-05-27 06:43:13 51°15.807 2°53.487 331.9 13.1 326 10.3
2010-05-27 06:43:18 51°15.822 2°53.471 332.9 13 326 10.2
2010-05-27 06:43:23 51°15.837 2°53.455 333.5 13 327 10.4
2010-05-27 06:43:28 51°15.852 2°53.439 334.2 13 327 10.5
2010-05-27 06:43:33 51°15.867 2°53.423 334.7 13 327 10.4
2010-05-27 06:43:37 51°15.88 2°53.411 335.3 13.1 327 10.3
2010-05-27 06:43:43 51°15.898 2°53.392 335.5 13 327 10.2
2010-05-27 06:43:48 51°15.913 2°53.376 335.5 12.9 327 10.7
2010-05-27 06:43:53 51°15.928 2°53.361 335.9 12.9 328 10.5
2010-05-27 06:43:58 51°15.943 2°53.345 336.1 12.9 327 10.3
2010-05-27 06:44:02 51°15.955 2°53.333 336.1 12.9 328 10.4
2010-05-27 06:44:08 51°15.973 2°53.315 336.1 12.9 328 10.6
2010-05-27 06:44:14 51°15.992 2°53.296 336.2 12.9 328 10.8
2010-05-27 06:44:18 51°16.004 2°53.284 336.5 13 328 10.7
2010-05-27 06:44:23 51°16.019 2°53.269 336.6 13 328 10.5
2010-05-27 06:44:28 51°16.034 2°53.254 337.3 13 328 10.5
2010-05-27 06:44:34 51°16.053 2°53.237 337.4 13 329 10.5
2010-05-27 06:44:38 51°16.065 2°53.225 338 12.9 330 10.7
2010-05-27 06:44:43 51°16.08 2°53.211 338.8 12.9 329 10.7
2010-05-27 06:44:48 51°16.096 2°53.196 339.4 12.8 330 10.4
2010-05-27 06:44:53 51°16.111 2°53.182 340.2 12.8 329 10.5
2010-05-27 06:44:58 51°16.127 2°53.169 340.6 12.9 331 10.7
2010-05-27 06:45:03 51°16.142 2°53.154 341.1 12.8 330 10.5
2010-05-27 06:45:08 51°16.157 2°53.14 341.2 12.8 330 10.3
2010-05-27 06:45:13 51°16.173 2°53.126 341.2 12.9 330 10.4
2010-05-27 06:45:18 51°16.189 2°53.111 341.4 12.9 330 10.6
2010-05-27 06:45:22 51°16.201 2°53.1 341.8 12.8 330 10.7
2010-05-27 06:45:28 51°16.22 2°53.085 342.2 12.6 334 10.4
2010-05-27 06:45:33 51°16.236 2°53.073 342.7 12.6 334 10.6
2010-05-27 06:45:38 51°16.251 2°53.062 343.5 12.6 336 10.7
2010-05-27 06:45:43 51°16.267 2°53.05 343.6 12.6 334 10.7
2010-05-27 06:45:48 51°16.283 2°53.038 343.2 12.6 336 10.8
2010-05-27 06:45:53 51°16.299 2°53.026 342.5 12.6 334 10.7
2010-05-27 06:45:58 51°16.314 2°53.014 341.7 12.5 335 10.7
2010-05-27 06:46:03 51°16.33 2°53.001 341.5 12.7 333 10.6
2010-05-27 06:46:08 51°16.346 2°52.99 341.2 12.7 335 10.6
2010-05-27 06:46:13 51°16.362 2°52.977 341.1 12.7 334 10.4
2010-05-27 06:46:18 51°16.378 2°52.965 341 12.7 334 10.6
2010-05-27 06:46:23 51°16.393 2°52.952 340.7 12.7 333 10.3
2010-05-27 06:46:28 51°16.409 2°52.94 340.6 12.6 333 10.5
2010-05-27 06:46:34 51°16.428 2°52.924 340.2 12.7 333 10.5
2010-05-27 06:46:38 51°16.44 2°52.914 340.7 12.7 334 10.4
2010-05-27 06:46:43 51°16.456 2°52.902 341.2 12.6 334 10.4
2010-05-27 06:46:48 51°16.472 2°52.891 341.8 12.6 335 10.5
2010-05-27 06:46:53 51°16.488 2°52.878 341.9 12.7 335 10.4
2010-05-27 06:46:58 51°16.503 2°52.867 341.9 12.6 335 10.3
2010-05-27 06:47:03 51°16.519 2°52.854 341.9 12.6 334 10.3
2010-05-27 06:47:08 51°16.535 2°52.842 341.8 12.6 334 10.6
2010-05-27 06:47:13 51°16.551 2°52.831 341.4 12.6 334 10.3
2010-05-27 06:47:18 51°16.566 2°52.818 341.3 12.6 335 10.1
2010-05-27 06:47:23 51°16.582 2°52.806 341.2 12.6 335 10
2010-05-27 06:47:28 51°16.598 2°52.794 341.3 12.6 334 10
2010-05-27 06:47:33 51°16.613 2°52.782 341.3 12.5 334 9.9
2010-05-27 06:47:38 51°16.629 2°52.771 341.8 12.5 335 9.9
2010-05-27 06:47:43 51°16.644 2°52.758 341.5 12.6 334 9.8
2010-05-27 06:47:48 51°16.66 2°52.746 341.5 12.5 334 9.8
2010-05-27 06:47:53 51°16.676 2°52.734 341.3 12.5 334 9.7
2010-05-27 06:47:58 51°16.692 2°52.723 341.6 12.5 335 9.6
2010-05-27 06:48:03 51°16.707 2°52.711 341.8 12.5 335 9.4
2010-05-27 06:48:08 51°16.723 2°52.699 341.8 12.5 335 9
2010-05-27 06:48:13 51°16.738 2°52.687 341.8 12.4 334 8.5
2010-05-27 06:48:18 51°16.753 2°52.676 341.7 12.3 334 8.7
2010-05-27 06:48:23 51°16.769 2°52.664 341.3 12.2 334 8.6
2010-05-27 06:48:28 51°16.784 2°52.652 341.2 12.2 334 8.6
2010-05-27 06:48:34 51°16.802 2°52.638 341.3 12.2 335 9
2010-05-27 06:48:38 51°16.815 2°52.629 341.4 12.2 334 8.7
2010-05-27 06:48:43 51°16.83 2°52.617 341.8 12.2 334 8.6
2010-05-27 06:48:48 51°16.845 2°52.606 341.8 12.2 334 8.7
2010-05-27 06:48:53 51°16.86 2°52.594 341.8 12.2 334 8.6
2010-05-27 06:48:58 51°16.876 2°52.583 341.9 12.2 335 8.4
2010-05-27 06:49:03 51°16.891 2°52.57 342 12.2 333 8.5
2010-05-27 06:49:08 51°16.906 2°52.558 341.7 12.3 334 8.6
2010-05-27 06:49:13 51°16.921 2°52.546 341.3 12.4 333 8.7
2010-05-27 06:49:18 51°16.937 2°52.534 341.3 12.3 333 8.3
2010-05-27 06:49:23 51°16.952 2°52.521 341 12.3 333 8.4
2010-05-27 06:49:28 51°16.967 2°52.509 341.2 12.3 334 8.3
2010-05-27 06:49:33 51°16.982 2°52.497 341.8 12.2 334 8.3
2010-05-27 06:49:38 51°16.997 2°52.486 341.7 12.2 334 8.3
2010-05-27 06:49:43 51°17.013 2°52.474 342 12.2 334 8.2
2010-05-27 06:49:48 51°17.028 2°52.462 342.1 12.2 334 8.6
2010-05-27 06:49:53 51°17.043 2°52.45 341.9 12.3 333 8.9
2010-05-27 06:49:58 51°17.058 2°52.437 341.7 12.3 333 8.6
2010-05-27 06:50:02 51°17.07 2°52.427 341.6 12.3 332 8.3
2010-05-27 06:50:08 51°17.089 2°52.412 340.9 12.4 333 8.8
2010-05-27 06:50:13 51°17.104 2°52.4 341.3 12.3 333 8.6
2010-05-27 06:50:18 51°17.119 2°52.388 341.6 12.3 333 8.7
2010-05-27 06:50:23 51°17.134 2°52.375 341.6 12.4 333 8.8
2010-05-27 06:50:29 51°17.153 2°52.361 341.7 12.4 333 8.8
2010-05-27 06:50:34 51°17.168 2°52.348 341.7 12.4 333 9
2010-05-27 06:50:38 51°17.18 2°52.338 341.4 12.4 333 8.7
2010-05-27 06:50:43 51°17.196 2°52.325 341.3 12.4 333 8.8
2010-05-27 06:50:48 51°17.211 2°52.313 341.4 12.4 332 9.3
2010-05-27 06:50:53 51°17.226 2°52.3 341.2 12.4 333 8.9
2010-05-27 06:50:58 51°17.241 2°52.288 341.3 12.3 333 9.4
2010-05-27 06:51:03 51°17.256 2°52.275 341.6 12.4 333 9.4
2010-05-27 06:51:08 51°17.272 2°52.262 341.4 12.4 332 9.5
2010-05-27 06:51:13 51°17.287 2°52.25 341.1 12.4 332 9.7
2010-05-27 06:51:18 51°17.302 2°52.237 341.1 12.5 332 10
2010-05-27 06:51:23 51°17.318 2°52.223 340.7 12.6 330 10
2010-05-27 06:51:28 51°17.332 2°52.207 338.3 12.6 326 10.1
2010-05-27 06:51:33 51°17.346 2°52.19 334.8 12.7 321 10.3
2010-05-27 06:51:38 51°17.358 2°52.17 330.2 12.7 316 10
2010-05-27 06:51:43 51°17.37 2°52.148 325 12.7 310 10.3
2010-05-27 06:51:48 51°17.38 2°52.125 319.6 12.8 306 10
2010-05-27 06:51:53 51°17.389 2°52.101 314.9 12.9 302 10.2
2010-05-27 06:51:58 51°17.399 2°52.077 312.2 12.9 302 10.1
2010-05-27 06:52:03 51°17.408 2°52.053 312.2 13 301 10.1
2010-05-27 06:52:08 51°17.417 2°52.028 310.7 13 300 9.9
2010-05-27 06:52:13 51°17.426 2°52.002 310 13.1 299 9.5
2010-05-27 06:52:18 51°17.434 2°51.977 309 13.1 297 9.3
2010-05-27 06:52:23 51°17.443 2°51.952 308.6 12.9 299 9.1
2010-05-27 06:52:28 51°17.452 2°51.927 308.6 13 298 9.3
2010-05-27 06:52:33 51°17.46 2°51.902 308.5 12.9 299 9.1
2010-05-27 06:52:38 51°17.469 2°51.876 308.4 12.9 299 9.3
2010-05-27 06:52:43 51°17.478 2°51.851 308.6 13.1 298 9.4
2010-05-27 06:52:49 51°17.488 2°51.821 308.2 13.1 298 9.4
2010-05-27 06:52:54 51°17.497 2°51.795 308.1 13.1 298 9.1
2010-05-27 06:52:58 51°17.504 2°51.775 307.8 13.1 299 9
2010-05-27 06:53:03 51°17.512 2°51.749 308.3 13.1 299 8.7
2010-05-27 06:53:08 51°17.521 2°51.724 307.9 13 299 8.8
2010-05-27 06:53:13 51°17.53 2°51.699 308.1 13.1 298 9.1
2010-05-27 06:53:18 51°17.539 2°51.673 307.9 13.2 299 8.9
2010-05-27 06:53:22 51°17.546 2°51.653 307.8 13.1 300 8.6
2010-05-27 06:53:28 51°17.556 2°51.622 307.8 13.1 297 8.5
2010-05-27 06:53:33 51°17.564 2°51.597 307.6 13.1 298 8.6
2010-05-27 06:53:38 51°17.573 2°51.571 307.2 13.1 298 8.4
2010-05-27 06:53:43 51°17.582 2°51.546 307.6 13.1 299 8.6
2010-05-27 06:53:48 51°17.59 2°51.52 307.8 13.1 298 8.6
2010-05-27 06:53:53 51°17.598 2°51.495 307.8 13.1 298 8.5
2010-05-27 06:53:58 51°17.607 2°51.469 308 13.2 298 8.6
2010-05-27 06:54:03 51°17.616 2°51.443 308.3 13.1 298 8.6
2010-05-27 06:54:08 51°17.625 2°51.418 308.5 13.1 299 8.3
2010-05-27 06:54:13 51°17.633 2°51.393 308.5 13.1 299 8.5
2010-05-27 06:54:18 51°17.642 2°51.367 308.5 13.1 298 8.5
2010-05-27 06:54:22 51°17.649 2°51.347 308.4 13.2 298 8.7
2010-05-27 06:54:28 51°17.66 2°51.316 308.5 13.2 299 8.4
2010-05-27 06:54:33 51°17.668 2°51.291 308.8 13.2 299 8.5
2010-05-27 06:54:38 51°17.677 2°51.266 308.6 13.2 299 8.3
2010-05-27 06:54:43 51°17.686 2°51.24 308.3 13.2 299 8.2
2010-05-27 06:54:49 51°17.697 2°51.209 307.8 13.2 298 8.7
2010-05-27 06:54:54 51°17.705 2°51.183 308 13.1 298 8.8
2010-05-27 06:54:58 51°17.712 2°51.164 307.8 12.9 298 8.6
2010-05-27 06:55:03 51°17.72 2°51.139 307.6 12.7 298 8.9
2010-05-27 06:55:08 51°17.728 2°51.114 307.8 12.5 298 8.8
2010-05-27 06:55:13 51°17.736 2°51.091 307.9 12 299 8.9
2010-05-27 06:55:18 51°17.744 2°51.069 308.4 11.4 298 9.1
2010-05-27 06:55:22 51°17.75 2°51.052 309.1 10.8 299 9.3
2010-05-27 06:55:28 51°17.758 2°51.028 309.5 10.3 298 9.7
2010-05-27 06:55:33 51°17.764 2°51.009 309.9 9.8 297 9.7
2010-05-27 06:55:38 51°17.77 2°50.99 309.7 9.4 295 9.9
2010-05-27 06:55:43 51°17.774 2°50.972 307.3 8.8 290 9.9
2010-05-27 06:55:48 51°17.776 2°50.953 302.7 8.4 281 10.1
2010-05-27 06:55:53 51°17.777 2°50.936 294 8 276 10.3
2010-05-27 06:55:58 51°17.777 2°50.919 287.3 7.7 271 10.3
2010-05-27 06:56:03 51°17.776 2°50.904 280.6 7.2 265 10.2
2010-05-27 06:56:08 51°17.773 2°50.889 274.1 6.9 257 10.6
2010-05-27 06:56:13 51°17.771 2°50.874 268.1 6.7 254 10.5
2010-05-27 06:56:18 51°17.767 2°50.861 263.8 6.6 248 10.7
2010-05-27 06:56:23 51°17.764 2°50.848 256.9 6.4 245 10.5
2010-05-27 06:56:28 51°17.759 2°50.836 250.9 6.4 238 10.5
2010-05-27 06:56:33 51°17.753 2°50.825 244.4 6.4 233 10.3
2010-05-27 06:56:38 51°17.747 2°50.815 237.7 6.4 227 10.5
2010-05-27 06:56:43 51°17.741 2°50.806 228.5 6.3 220 10.6
2010-05-27 06:56:48 51°17.734 2°50.798 221.4 6.1 215 10.6
2010-05-27 06:56:53 51°17.726 2°50.791 213.7 6 211 10.4
2010-05-27 06:56:58 51°17.719 2°50.786 206.9 5.9 207 10.3
2010-05-27 06:57:03 51°17.712 2°50.781 200 5.7 202 10.1
2010-05-27 06:57:08 51°17.704 2°50.778 194.1 5.5 196 10.3
2010-05-27 06:57:13 51°17.697 2°50.775 188.3 5.4 193 10.3
2010-05-27 06:57:18 51°17.69 2°50.773 182 5.3 190 10.5
2010-05-27 06:57:23 51°17.683 2°50.772 176.1 5.1 185 10.1
2010-05-27 06:57:28 51°17.676 2°50.773 171.2 5 180 10.3
2010-05-27 06:57:33 51°17.669 2°50.774 164.3 4.8 174 10.2
2010-05-27 06:57:38 51°17.662 2°50.776 159 4.9 171 10
2010-05-27 06:57:43 51°17.656 2°50.779 151.1 4.7 161 9.9
2010-05-27 06:57:48 51°17.65 2°50.782 145.7 4.8 161 9.9
2010-05-27 06:57:53 51°17.645 2°50.787 138.2 4.4 150 9.8
2010-05-27 06:57:58 51°17.639 2°50.792 130.8 4.4 149 9.7
2010-05-27 06:58:03 51°17.635 2°50.798 125.2 4.1 141 9.6
2010-05-27 06:58:08 51°17.631 2°50.804 118.8 4 136 9.9
2010-05-27 06:58:13 51°17.628 2°50.811 112.2 3.6 129 9.7
2010-05-27 06:58:18 51°17.625 2°50.817 104.5 3.4 126 9.5
2010-05-27 06:58:23 51°17.623 2°50.822 99.1 3.1 121 9.4
2010-05-27 06:58:28 51°17.621 2°50.828 94.8 2.9 120 9.5
2010-05-27 06:58:33 51°17.62 2°50.833 91.1 2.5 113 9.4
2010-05-27 06:58:38 51°17.618 2°50.837 86.4 2.4 118 9.6
2010-05-27 06:58:43 51°17.617 2°50.842 82.8 2 110 9.5
2010-05-27 06:58:48 51°17.616 2°50.846 80.8 2.2 121 9.6
2010-05-27 06:58:53 51°17.615 2°50.849 79.3 1.7 110 9.3
2010-05-27 06:58:58 51°17.613 2°50.853 78.3 1.9 125 9.4
2010-05-27 06:59:03 51°17.613 2°50.855 77.2 1.2 124 9.4
2010-05-27 06:59:08 51°17.611 2°50.857 74.2 1.4 135 9.5
2010-05-27 06:59:13 51°17.61 2°50.858 71.3 1 134 9.6
2010-05-27 06:59:18 51°17.609 2°50.86 69.2 1 137 9.4
2010-05-27 06:59:23 51°17.608 2°50.861 67.1 0.9 142 9.3
2010-05-27 06:59:28 51°17.607 2°50.862 65.3 1 155 9.4
2010-05-27 06:59:33 51°17.607 2°50.862 62.8 0.6 165 9.3
2010-05-27 06:59:38 51°17.605 2°50.863 60.6 1.1 158 9.3
2010-05-27 06:59:43 51°17.604 2°50.863 58.9 0.7 168 9.3
2010-05-27 06:59:48 51°17.603 2°50.864 57.3 1 165 9.5
2010-05-27 06:59:54 51°17.602 2°50.863 55.4 0.7 182 9.5
2010-05-27 06:59:58 51°17.601 2°50.863 54.1 1 175 9.4
2010-05-27 07:00:03 51°17.6 2°50.863 52.6 0.7 196 9.3
2010-05-27 07:00:08 51°17.598 2°50.862 51.6 1.1 185 9.4
2010-05-27 07:00:14 51°17.597 2°50.861 50.4 0.9 214 9.2
2010-05-27 07:00:18 51°17.596 2°50.861 50 1.1 190 9.3
2010-05-27 07:00:23 51°17.595 2°50.86 49.1 1 198 9.5
2010-05-27 07:00:28 51°17.593 2°50.859 48.6 0.9 206 9.1
2010-05-27 07:00:33 51°17.592 2°50.859 47.7 1 196 9.2
2010-05-27 07:00:38 51°17.591 2°50.858 47.3 0.9 203 9.4
2010-05-27 07:00:44 51°17.589 2°50.858 46.3 1 193 9.4
2010-05-27 07:00:48 51°17.589 2°50.857 46.1 0.9 202 9.3
2010-05-27 07:00:53 51°17.587 2°50.856 45.4 1 194 9.4
2010-05-27 07:00:58 51°17.586 2°50.855 45 0.9 216 9.3
2010-05-27 07:01:03 51°17.585 2°50.855 44.3 1 198 9.1
2010-05-27 07:01:08 51°17.584 2°50.854 44.1 0.9 208 8.9
2010-05-27 07:01:13 51°17.582 2°50.853 43.5 1.1 188 9.6
2010-05-27 07:01:18 51°17.582 2°50.852 42.8 0.9 223 9.2
2010-05-27 07:01:23 51°17.58 2°50.852 42.8 1 182 9.2
2010-05-27 07:01:28 51°17.579 2°50.85 42 0.8 225 9.2
2010-05-27 07:01:34 51°17.577 2°50.85 41.6 1 183 9.4
2010-05-27 07:01:38 51°17.577 2°50.848 41.3 0.9 233 9.4
2010-05-27 07:01:42 51°17.576 2°50.849 40.6 0.8 193 9.3
2010-05-27 07:01:48 51°17.575 2°50.848 40.9 0.5 213 9.2
2010-05-27 07:01:54 51°17.575 2°50.848 39.4 0.4 207 9.2
2010-05-27 07:01:58 51°17.575 2°50.847 38.1 0.3 257 9.2
2010-05-27 07:02:03 51°17.574 2°50.847 36.6 0.1 236 9.2
2010-05-27 07:02:08 51°17.575 2°50.847 35 0.1 337 9.2
2010-05-27 07:02:14 51°17.575 2°50.847 33.5 0.1 355 9.3
2010-05-27 07:02:18 51°17.575 2°50.846 32 0.4 327 9.2
2010-05-27 07:02:23 51°17.576 2°50.846 30.7 0.2 342 9.1
2010-05-27 07:02:28 51°17.576 2°50.846 30 0.3 359 9.3
2010-05-27 07:02:33 51°17.577 2°50.846 29.1 0.3 330 9.3
2010-05-27 07:02:38 51°17.577 2°50.846 28.6 0.2 357 9.1
2010-05-27 07:02:42 51°17.577 2°50.845 28.1 0.2 324 9.3
2010-05-27 07:02:48 51°17.577 2°50.845 27.8 0.2 329 9.3
2010-05-27 07:02:53 51°17.577 2°50.845 27.7 0.1 341 9.6
2010-05-27 07:02:58 51°17.577 2°50.844 27.3 0.3 311 9.5
2010-05-27 07:03:03 51°17.578 2°50.844 27.1 0.2 314 9.4
2010-05-27 07:03:08 51°17.578 2°50.843 26.9 0.3 296 9.3
2010-05-27 07:03:13 51°17.578 2°50.843 26.6 0.1 282 9.3
2010-05-27 07:03:18 51°17.578 2°50.842 26.3 0.4 293 9.2
2010-05-27 07:03:23 51°17.578 2°50.842 26.1 0.1 283 9.1
2010-05-27 07:03:28 51°17.578 2°50.841 26 0.3 283 9.5
2010-05-27 07:03:33 51°17.578 2°50.841 25.7 0.2 261 9.2
2010-05-27 07:03:38 51°17.578 2°50.841 26 0.4 293 9.2
2010-05-27 07:03:42 51°17.578 2°50.841 26.1 0.1 281 9.2
2010-05-27 07:03:48 51°17.578 2°50.84 26.2 0.2 278 9.4
2010-05-27 07:03:53 51°17.578 2°50.84 26.7 0.2 275 9.3
2010-05-27 07:03:58 51°17.578 2°50.84 27.2 0.2 281 9.3
2010-05-27 07:04:03 51°17.578 2°50.839 27.9 0.2 285 9.3
2010-05-27 07:04:08 51°17.579 2°50.839 28.5 0.4 301 9.3
2010-05-27 07:04:14 51°17.579 2°50.839 29.6 0.1 87 9.3
2010-05-27 07:04:18 51°17.579 2°50.838 30 0.4 306 9.2
2010-05-27 07:04:23 51°17.579 2°50.839 30.9 0.1 92 9.2
2010-05-27 07:04:28 51°17.579 2°50.839 31.3 0.1 332 9.3
2010-05-27 07:04:34 51°17.579 2°50.839 31.9 0.1 82 9.3
2010-05-27 07:04:38 51°17.579 2°50.839 32.6 0.1 327 9.2
2010-05-27 07:04:42 51°17.579 2°50.839 33.4 0.1 137 9.3
2010-05-27 07:04:48 51°17.579 2°50.839 34 0.2 282 9.2
2010-05-27 07:04:53 51°17.579 2°50.839 34.9 0.1 143 9
2010-05-27 07:04:58 51°17.579 2°50.84 35.8 0.1 287 9.3
2010-05-27 07:05:03 51°17.579 2°50.84 36 0.2 282 9.2
2010-05-27 07:05:08 51°17.579 2°50.84 36.4 0.2 160 9.2
2010-05-27 07:05:13 51°17.579 2°50.84 37 0.1 220 9.3
2010-05-27 07:05:18 51°17.578 2°50.84 36.9 0.1 178 9.3
2010-05-27 07:05:23 51°17.578 2°50.84 37.2 0.1 155 9.3
2010-05-27 07:05:28 51°17.578 2°50.84 37.6 -999 189 9.3
2010-05-27 07:05:33 51°17.578 2°50.84 37.8 0.1 123 9.4
2010-05-27 07:05:38 51°17.578 2°50.84 37.7 -999 123 9.2
2010-05-27 07:05:44 51°17.578 2°50.841 37.6 0.2 145 9.3
2010-05-27 07:05:49 51°17.578 2°50.841 37.8 0.1 142 9.2
2010-05-27 07:05:54 51°17.577 2°50.842 37.9 0.2 122 9.3
2010-05-27 07:05:58 51°17.578 2°50.841 37.9 0.1 91 9.3
2010-05-27 07:06:03 51°17.577 2°50.842 37.7 0.1 87 9.2
2010-05-27 07:06:08 51°17.577 2°50.842 37.8 0.1 93 9.3
2010-05-27 07:06:13 51°17.577 2°50.842 37.6 0.2 103 9.7
2010-05-27 07:06:18 51°17.577 2°50.842 37 0.1 47 9.3
2010-05-27 07:06:23 51°17.577 2°50.843 37 0.1 102 9.2
2010-05-27 07:06:28 51°17.577 2°50.843 36.8 0.1 91 9.3
2010-05-27 07:06:33 51°17.577 2°50.843 36.3 0.1 104 9.6
2010-05-27 07:06:38 51°17.577 2°50.843 35.8 0.1 301 9.4
2010-05-27 07:06:43 51°17.577 2°50.843 35.8 0.2 115 9.5
2010-05-27 07:06:48 51°17.577 2°50.843 35.3 0.1 284 9.5
2010-05-27 07:06:53 51°17.577 2°50.843 34.5 0.1 123 9.5
2010-05-27 07:06:58 51°17.577 2°50.843 34.6 -999 254 9.6
2010-05-27 07:07:03 51°17.577 2°50.843 33.9 0.1 297 9.4
2010-05-27 07:07:08 51°17.577 2°50.843 33.8 0.1 122 9.5
2010-05-27 07:07:13 51°17.577 2°50.843 33.2 0.2 288 9.5
2010-05-27 07:07:18 51°17.577 2°50.843 32.8 0.1 126 9.3
2010-05-27 07:07:23 51°17.577 2°50.843 32.7 0.1 314 9.3
2010-05-27 07:07:28 51°17.577 2°50.843 32.1 -999 128 9.5
2010-05-27 07:07:33 51°17.577 2°50.842 31.4 0.2 290 9.3
2010-05-27 07:07:38 51°17.577 2°50.842 31.4 0.2 129 9.5
2010-05-27 07:07:43 51°17.577 2°50.842 31.2 0.2 300 9.4
2010-05-27 07:07:48 51°17.577 2°50.842 30.9 -999 325 9.3
2010-05-27 07:07:53 51°17.577 2°50.842 30.8 0.1 333 9.5
2010-05-27 07:07:58 51°17.578 2°50.841 30.5 0.1 307 9.4
2010-05-27 07:08:03 51°17.578 2°50.841 30.3 -999 258 9.5
2010-05-27 07:08:08 51°17.578 2°50.841 30.4 0.2 302 9.3
2010-05-27 07:08:13 51°17.578 2°50.841 30.1 -999 259 9.3
2010-05-27 07:08:18 51°17.578 2°50.841 30 0.2 316 9.2
2010-05-27 07:08:23 51°17.578 2°50.841 30 0.1 104 9.5
2010-05-27 07:08:28 51°17.578 2°50.841 29.9 0.4 300 9.2
2010-05-27 07:08:34 51°17.578 2°50.841 30.2 0.2 118 9.3
2010-05-27 07:08:38 51°17.578 2°50.84 30.6 0.3 296 9.4
2010-05-27 07:08:43 51°17.578 2°50.841 30.4 0.2 115 9.4
2010-05-27 07:08:48 51°17.578 2°50.84 30.6 0.3 306 9.2
2010-05-27 07:08:54 51°17.578 2°50.841 30.7 0.2 107 9.3
2010-05-27 07:08:58 51°17.579 2°50.84 30.7 0.2 301 9.1
2010-05-27 07:09:03 51°17.578 2°50.841 31.2 0.2 112 9.3
2010-05-27 07:09:08 51°17.579 2°50.84 31.3 0.2 304 9.4
2010-05-27 07:09:13 51°17.579 2°50.84 31.5 -999 359 9.2
2010-05-27 07:09:18 51°17.578 2°50.84 31.8 -999 138 9.3
2010-05-27 07:09:23 51°17.579 2°50.84 32 0.1 322 9.2
2010-05-27 07:09:28 51°17.578 2°50.84 31.9 0.1 257 9.1
2010-05-27 07:09:33 51°17.578 2°50.84 32 0.1 123 9.3
2010-05-27 07:09:38 51°17.578 2°50.84 31.7 0.1 135 9.2
2010-05-27 07:09:43 51°17.578 2°50.84 31.7 0.1 111 9.2
2010-05-27 07:09:48 51°17.578 2°50.84 31.8 -999 263 9.2
2010-05-27 07:09:53 51°17.579 2°50.839 31.7 -999 307 9.2
2010-05-27 07:09:58 51°17.578 2°50.84 31.8 0.1 124 9.3
2010-05-27 07:10:03 51°17.579 2°50.84 31.7 0.1 75 9.3
2010-05-27 07:10:08 51°17.579 2°50.839 31.8 0.1 335 9.3
2010-05-27 07:10:13 51°17.579 2°50.839 31.9 0.1 11 9.2
2010-05-27 07:10:18 51°17.579 2°50.839 32 -999 46 9.2
2010-05-27 07:10:23 51°17.579 2°50.839 32 -999 357 9.2
2010-05-27 07:10:28 51°17.579 2°50.839 32.4 -999 152 9.3
2010-05-27 07:10:33 51°17.579 2°50.839 32.5 0.1 300 9.1
2010-05-27 07:10:38 51°17.579 2°50.84 33.2 0.2 85 9.1
2010-05-27 07:10:43 51°17.579 2°50.84 33.5 -999 22 9.1
2010-05-27 07:10:48 51°17.578 2°50.84 33.5 0.1 128 9.2
2010-05-27 07:10:53 51°17.578 2°50.84 34.2 -999 325 9.2
2010-05-27 07:10:58 51°17.578 2°50.84 34.4 0.1 113 9.3
2010-05-27 07:11:03 51°17.578 2°50.84 34.8 -999 304 9.4
2010-05-27 07:11:08 51°17.578 2°50.84 34.8 0.2 126 9.3
2010-05-27 07:11:13 51°17.578 2°50.84 34.9 -999 318 9.3
2010-05-27 07:11:18 51°17.578 2°50.84 35 0.1 120 9.4
2010-05-27 07:11:23 51°17.578 2°50.84 34.7 0.1 288 9.4
2010-05-27 07:11:28 51°17.578 2°50.841 34.3 0.1 131 9.4
2010-05-27 07:11:33 51°17.578 2°50.841 34.3 -999 298 9.5
2010-05-27 07:11:38 51°17.578 2°50.841 34.1 0.1 141 9.4
2010-05-27 07:11:43 51°17.578 2°50.84 33.8 0.2 286 9.2
2010-05-27 07:11:48 51°17.578 2°50.841 33.9 0.2 127 9.4
2010-05-27 07:11:53 51°17.578 2°50.84 33.5 0.2 306 9.2
2010-05-27 07:11:58 51°17.578 2°50.841 33.5 0.2 113 9.4
2010-05-27 07:12:03 51°17.578 2°50.84 33 0.2 301 9.4
2010-05-27 07:12:08 51°17.578 2°50.841 32.7 0.1 128 9.4
2010-05-27 07:12:13 51°17.578 2°50.84 32.2 0.2 295 9.4
2010-05-27 07:12:18 51°17.578 2°50.841 32.1 0.1 131 9.2
2010-05-27 07:12:23 51°17.578 2°50.841 32 -999 329 9.4
2010-05-27 07:12:28 51°17.578 2°50.841 31.9 -999 49 9.3
2010-05-27 07:12:33 51°17.578 2°50.84 31.8 -999 277 9.5
2010-05-27 07:12:38 51°17.578 2°50.84 31.8 0.1 289 9.3
2010-05-27 07:12:43 51°17.578 2°50.84 31.8 0.1 249 9.3
2010-05-27 07:12:48 51°17.578 2°50.841 31.6 -999 48 9.3
2010-05-27 07:12:53 51°17.578 2°50.841 31.6 0.2 97 9.5
2010-05-27 07:12:58 51°17.578 2°50.84 31.3 0.2 294 9.4
2010-05-27 07:13:03 51°17.578 2°50.841 31.4 0.1 129 9.5
2010-05-27 07:13:08 51°17.578 2°50.84 31.8 0.1 279 9.4
2010-05-27 07:13:13 51°17.578 2°50.84 31.9 -999 51 9.4
2010-05-27 07:13:18 51°17.578 2°50.84 32.1 0.2 331 9.1
2010-05-27 07:13:23 51°17.578 2°50.84 32.5 0.1 108 9.4
2010-05-27 07:13:28 51°17.579 2°50.84 32.4 0.3 308 9.2
2010-05-27 07:13:33 51°17.578 2°50.841 32.5 0.2 106 9.4
2010-05-27 07:13:38 51°17.579 2°50.84 32.6 0.3 301 9.4
2010-05-27 07:13:43 51°17.578 2°50.84 32.5 0.1 123 9.3
2010-05-27 07:13:48 51°17.579 2°50.84 32.7 0.1 319 9.4
2010-05-27 07:13:53 51°17.578 2°50.841 32.5 -999 65 9.4
2010-05-27 07:13:58 51°17.579 2°50.84 32.4 0.1 330 9.2
2010-05-27 07:14:03 51°17.578 2°50.84 32.2 -999 90 9.2
2010-05-27 07:14:08 51°17.579 2°50.84 32.2 0.1 312 9.3
2010-05-27 07:14:13 51°17.579 2°50.84 32.1 0.1 88 9.4
2010-05-27 07:14:18 51°17.579 2°50.84 32 0.2 305 9.3
2010-05-27 07:14:23 51°17.579 2°50.84 32 -999 53 9.4
2010-05-27 07:14:28 51°17.579 2°50.84 32.1 0.2 310 9.2
2010-05-27 07:14:33 51°17.579 2°50.84 32 0.1 89 9.3
2010-05-27 07:14:38 51°17.579 2°50.84 32 0.1 292 9.5
2010-05-27 07:14:43 51°17.579 2°50.84 31.8 0.1 93 9.3
2010-05-27 07:14:48 51°17.579 2°50.84 31.9 -999 343 9.5
2010-05-27 07:14:53 51°17.579 2°50.839 31.6 0.2 288 9.2
2010-05-27 07:14:58 51°17.579 2°50.839 31.9 0.1 63 9.1
2010-05-27 07:15:03 51°17.579 2°50.839 32 0.1 129 9.3
2010-05-27 07:15:09 51°17.579 2°50.839 31.8 0.2 272 9.3
2010-05-27 07:15:14 51°17.579 2°50.839 31.8 0.1 148 9.3
2010-05-27 07:15:18 51°17.579 2°50.839 32.2 0.1 267 9.4
2010-05-27 07:15:23 51°17.579 2°50.839 32.2 -999 211 9.3
2010-05-27 07:15:28 51°17.579 2°50.839 32.4 0.1 357 9.2
2010-05-27 07:15:33 51°17.579 2°50.84 32.7 0.3 108 9.5
2010-05-27 07:15:38 51°17.579 2°50.839 32.5 0.2 282 9.2
2010-05-27 07:15:43 51°17.578 2°50.84 33 0.3 140 9.4
2010-05-27 07:15:48 51°17.578 2°50.839 33.3 0.1 268 9.5
2010-05-27 07:15:53 51°17.578 2°50.84 33.5 0.2 133 9.4
2010-05-27 07:15:58 51°17.578 2°50.84 33.7 0.1 296 9.1
2010-05-27 07:16:03 51°17.578 2°50.84 34.3 0.3 105 9.4
2010-05-27 07:16:08 51°17.578 2°50.84 33.9 0.2 308 9.3
2010-05-27 07:16:13 51°17.578 2°50.841 34.3 0.3 106 9.3
2010-05-27 07:16:18 51°17.578 2°50.84 34.2 0.2 302 9.2
2010-05-27 07:16:22 51°17.578 2°50.841 34.3 0.2 93 9.3
2010-05-27 07:16:28 51°17.578 2°50.84 34 0.2 320 9.3
2010-05-27 07:16:33 51°17.578 2°50.84 34 -999 59 9.2
2010-05-27 07:16:38 51°17.578 2°50.841 33.6 0.1 112 9.4
2010-05-27 07:16:43 51°17.578 2°50.841 33.4 -999 79 9.5
2010-05-27 07:16:48 51°17.578 2°50.841 32.7 0.2 311 9.3
2010-05-27 07:16:54 51°17.578 2°50.841 32.5 0.1 90 9.2
2010-05-27 07:16:58 51°17.578 2°50.841 32.4 0.1 117 9.4
2010-05-27 07:17:03 51°17.578 2°50.841 31.9 -999 35 9.5
2010-05-27 07:17:08 51°17.578 2°50.84 31.6 0.2 310 9.3
2010-05-27 07:17:13 51°17.579 2°50.84 31.2 0.1 329 9.3
2010-05-27 07:17:18 51°17.579 2°50.84 30.9 -999 1 9.3
2010-05-27 07:17:23 51°17.579 2°50.84 30.5 0.2 304 9.3
2010-05-27 07:17:28 51°17.579 2°50.84 30.5 0.1 329 9.3
2010-05-27 07:17:33 51°17.579 2°50.84 30.2 0.2 319 9.2
2010-05-27 07:17:38 51°17.579 2°50.84 30.2 0.1 39 9.3
2010-05-27 07:17:42 51°17.579 2°50.839 30 0.2 310 9.3
2010-05-27 07:17:48 51°17.579 2°50.84 30.1 0.1 72 9.3
2010-05-27 07:17:53 51°17.579 2°50.839 30.2 0.2 317 9.3
2010-05-27 07:17:58 51°17.579 2°50.839 30.2 -999 41 9.3
2010-05-27 07:18:03 51°17.58 2°50.839 30.3 0.2 306 9.3
2010-05-27 07:18:08 51°17.58 2°50.839 30.4 0.1 103 9.3
2010-05-27 07:18:13 51°17.58 2°50.839 30.4 0.2 322 9.4
2010-05-27 07:18:18 51°17.58 2°50.839 30.6 0.1 350 9.4
2010-05-27 07:18:23 51°17.58 2°50.839 30.6 0.1 328 9.5
2010-05-27 07:18:28 51°17.58 2°50.839 30.7 -999 32 9.3
2010-05-27 07:18:33 51°17.58 2°50.838 31 0.2 313 9.2
2010-05-27 07:18:38 51°17.58 2°50.839 31.1 0.1 86 9.4
2010-05-27 07:18:43 51°17.58 2°50.838 31.1 0.1 353 9.4
2010-05-27 07:18:48 51°17.58 2°50.838 31.1 -999 56 9.4
2010-05-27 07:18:53 51°17.58 2°50.838 31.2 -999 142 9.4
2010-05-27 07:18:58 51°17.58 2°50.838 31.3 0.1 258 9.3
2010-05-27 07:19:03 51°17.58 2°50.838 31.7 0.1 143 9.3
2010-05-27 07:19:08 51°17.58 2°50.838 31.8 0.1 283 9.2
2010-05-27 07:19:13 51°17.58 2°50.838 32.2 0.2 128 9.4
2010-05-27 07:19:18 51°17.58 2°50.838 32.5 0.2 283 9.4
2010-05-27 07:19:23 51°17.58 2°50.838 32.7 0.1 153 9.2
2010-05-27 07:19:28 51°17.58 2°50.838 33 -999 186 9.2
2010-05-27 07:19:34 51°17.579 2°50.838 33.6 0.2 154 9.6
2010-05-27 07:19:38 51°17.58 2°50.838 33.7 0.1 250 9.2
2010-05-27 07:19:43 51°17.579 2°50.839 34.3 0.3 132 9.4
2010-05-27 07:19:48 51°17.579 2°50.838 34.4 0.1 283 9.4
2010-05-27 07:19:53 51°17.579 2°50.839 34.6 0.2 133 9.4
2010-05-27 07:19:58 51°17.579 2°50.838 34.8 0.2 291 9.5
2010-05-27 07:20:03 51°17.579 2°50.839 34.9 0.1 121 9.4
2010-05-27 07:20:08 51°17.579 2°50.839 34.9 0.1 134 9.5
2010-05-27 07:20:13 51°17.579 2°50.839 34.9 0.1 274 9.3
2010-05-27 07:20:18 51°17.579 2°50.839 35 0.1 137 9.3
2010-05-27 07:20:23 51°17.579 2°50.839 35.1 -999 125 9.5
2010-05-27 07:20:28 51°17.579 2°50.839 34.9 0.1 148 9.4
2010-05-27 07:20:33 51°17.578 2°50.84 35.2 0.1 136 9.3
2010-05-27 07:20:38 51°17.578 2°50.84 35.2 0.2 132 9.4
2010-05-27 07:20:43 51°17.578 2°50.84 35.3 -999 138 9.5
2010-05-27 07:20:48 51°17.578 2°50.84 35.5 0.2 146 9.6
2010-05-27 07:20:53 51°17.578 2°50.84 35.7 0.1 255 9.4
2010-05-27 07:20:58 51°17.578 2°50.841 35.6 0.1 123 9.4
2010-05-27 07:21:03 51°17.578 2°50.841 35.8 0.1 90 9.4
2010-05-27 07:21:08 51°17.578 2°50.841 35.6 0.1 106 9.5
2010-05-27 07:21:13 51°17.578 2°50.841 35.7 0.1 99 9.5
2010-05-27 07:21:18 51°17.578 2°50.841 35.6 0.1 104 9.3
2010-05-27 07:21:23 51°17.578 2°50.842 35.7 0.2 114 9.5
2010-05-27 07:21:28 51°17.578 2°50.842 35.5 0.1 100 9.6
2010-05-27 07:21:33 51°17.577 2°50.842 35.5 0.2 110 9.7
2010-05-27 07:21:38 51°17.577 2°50.842 35.2 0.1 157 9.6
2010-05-27 07:21:43 51°17.577 2°50.842 35.3 0.2 116 9.7
2010-05-27 07:21:48 51°17.577 2°50.842 35 -999 302 9.6
2010-05-27 07:21:53 51°17.577 2°50.843 35 0.2 118 9.7
2010-05-27 07:21:58 51°17.577 2°50.842 35 0.1 316 9.4
2010-05-27 07:22:03 51°17.577 2°50.843 34.9 0.3 107 9.5
2010-05-27 07:22:08 51°17.578 2°50.842 34.7 0.2 323 9.4
2010-05-27 07:22:13 51°17.577 2°50.843 34.3 0.3 119 9.5
2010-05-27 07:22:18 51°17.577 2°50.842 34.2 0.2 301 9.5
2010-05-27 07:22:23 51°17.577 2°50.843 34.3 0.2 126 9.5
2010-05-27 07:22:28 51°17.577 2°50.843 34.3 0.1 317 9.6
2010-05-27 07:22:33 51°17.577 2°50.843 34.1 0.1 116 9.8
2010-05-27 07:22:38 51°17.577 2°50.842 33.6 0.2 296 9.6
2010-05-27 07:22:43 51°17.577 2°50.843 33.5 0.1 101 9.6
2010-05-27 07:22:48 51°17.577 2°50.843 33.2 0.1 306 9.6
2010-05-27 07:22:53 51°17.577 2°50.843 32.8 0.1 126 9.4
2010-05-27 07:22:58 51°17.577 2°50.843 32.7 -999 36 9.6
2010-05-27 07:23:03 51°17.577 2°50.843 32.6 -999 50 9.5
2010-05-27 07:23:08 51°17.577 2°50.843 32.4 -999 177 9.7
2010-05-27 07:23:13 51°17.577 2°50.843 32.1 0.1 311 9.6
2010-05-27 07:23:18 51°17.577 2°50.843 32.1 0.1 118 9.7
2010-05-27 07:23:23 51°17.577 2°50.843 31.9 0.1 296 9.8
2010-05-27 07:23:28 51°17.577 2°50.843 32 0.1 135 9.6
2010-05-27 07:23:33 51°17.577 2°50.842 31.9 0.2 286 9.5
2010-05-27 07:23:38 51°17.577 2°50.843 31.7 -999 280 9.6
2010-05-27 07:23:43 51°17.577 2°50.842 31.7 0.2 280 9.5
2010-05-27 07:23:48 51°17.577 2°50.843 31.8 0.2 136 9.6
2010-05-27 07:23:53 51°17.577 2°50.842 31.8 0.2 299 9.5
2010-05-27 07:23:58 51°17.577 2°50.843 31.8 0.1 123 9.6
2010-05-27 07:24:03 51°17.577 2°50.843 31.8 -999 315 9.6
2010-05-27 07:24:08 51°17.577 2°50.843 31.5 -999 186 9.4
2010-05-27 07:24:14 51°17.577 2°50.843 31.7 0.1 317 9.5
2010-05-27 07:24:18 51°17.577 2°50.843 31.4 -999 131 9.6
2010-05-27 07:24:23 51°17.577 2°50.843 31.4 0.1 325 9.8
2010-05-27 07:24:28 51°17.577 2°50.843 31 -999 37 9.7
2010-05-27 07:24:34 51°17.577 2°50.843 31 0.1 338 9.6
2010-05-27 07:24:38 51°17.577 2°50.842 30.8 0.1 313 9.5
2010-05-27 07:24:43 51°17.577 2°50.843 30.7 0.1 98 9.7
2010-05-27 07:24:48 51°17.577 2°50.842 30.3 0.2 305 9.7
2010-05-27 07:24:53 51°17.577 2°50.843 30.4 0.1 108 9.6
2010-05-27 07:24:58 51°17.577 2°50.842 30.2 0.1 318 9.5
2010-05-27 07:25:03 51°17.577 2°50.842 30.5 0.1 118 9.6
2010-05-27 07:25:08 51°17.578 2°50.842 30.3 0.2 295 9.5
2010-05-27 07:25:13 51°17.577 2°50.842 30.4 0.1 120 9.7
2010-05-27 07:25:18 51°17.578 2°50.842 30.4 0.2 301 9.5
2010-05-27 07:25:23 51°17.578 2°50.842 30.5 -999 23 9.5
2010-05-27 07:25:28 51°17.578 2°50.842 30.3 -999 29 9.7
2010-05-27 07:25:33 51°17.578 2°50.842 30 0.1 297 9.6
2010-05-27 07:25:38 51°17.578 2°50.842 29.8 0.1 130 9.5
2010-05-27 07:25:43 51°17.578 2°50.842 29.8 0.1 90 9.6
2010-05-27 07:25:48 51°17.578 2°50.843 29.2 0.2 289 9.4
2010-05-27 07:25:53 51°17.578 2°50.842 29.7 -999 104 9.3
2010-05-27 07:25:58 51°17.578 2°50.842 29.8 0.1 327 9.4
2010-05-27 07:26:03 51°17.578 2°50.841 29.4 -999 306 9.6
2010-05-27 07:26:08 51°17.578 2°50.841 29.4 0.1 271 9.4
2010-05-27 07:26:14 51°17.578 2°50.841 29.2 0.1 303 9.4
2010-05-27 07:26:18 51°17.578 2°50.841 29.3 -999 198 9.7
2010-05-27 07:26:23 51°17.578 2°50.84 29.1 0.3 292 9.5
2010-05-27 07:26:28 51°17.578 2°50.841 29.2 -999 220 9.2
2010-05-27 07:26:33 51°17.578 2°50.841 29.6 0.1 291 9.4
2010-05-27 07:26:38 51°17.578 2°50.841 29.5 0.1 132 9.5
2010-05-27 07:26:43 51°17.578 2°50.84 29.7 0.3 298 9.4
2010-05-27 07:26:48 51°17.578 2°50.841 29.7 0.1 95 9.4
2010-05-27 07:26:53 51°17.578 2°50.84 30 0.2 301 9.4
2010-05-27 07:26:58 51°17.578 2°50.841 30 0.1 112 9.4
2010-05-27 07:27:03 51°17.578 2°50.84 30.4 0.1 307 9.6
2010-05-27 07:27:08 51°17.578 2°50.841 30.5 -999 95 9.4
2010-05-27 07:27:13 51°17.578 2°50.84 30.9 0.1 70 9.4
2010-05-27 07:27:18 51°17.578 2°50.84 31 -999 311 9.5
2010-05-27 07:27:23 51°17.578 2°50.84 31.1 0.1 359 9.4
2010-05-27 07:27:28 51°17.578 2°50.841 31.3 0.1 72 9.6
2010-05-27 07:27:33 51°17.579 2°50.84 31.3 0.2 308 9.4
2010-05-27 07:27:38 51°17.578 2°50.841 31.3 0.1 115 9.6
2010-05-27 07:27:43 51°17.578 2°50.84 31.3 0.1 307 9.6
2010-05-27 07:27:48 51°17.578 2°50.841 31.2 0.2 135 9.7
2010-05-27 07:27:53 51°17.578 2°50.84 31.2 0.1 285 9.5
2010-05-27 07:27:58 51°17.578 2°50.841 31.2 0.1 136 9.3
2010-05-27 07:28:03 51°17.578 2°50.84 31.2 0.1 286 9.4
2010-05-27 07:28:08 51°17.578 2°50.841 31 0.1 122 9.4
2010-05-27 07:28:13 51°17.578 2°50.84 30.9 0.2 308 9.2
2010-05-27 07:28:18 51°17.578 2°50.841 31.1 0.2 100 9.3
2010-05-27 07:28:22 51°17.578 2°50.84 31 -999 231 9.5
2010-05-27 07:28:28 51°17.578 2°50.84 31.1 -999 193 9.4
2010-05-27 07:28:33 51°17.578 2°50.84 31.3 0.1 161 9.6
2010-05-27 07:28:38 51°17.578 2°50.84 31.1 0.1 288 9.5
2010-05-27 07:28:43 51°17.578 2°50.84 31 0.1 241 9.4
2010-05-27 07:28:48 51°17.578 2°50.84 31.2 0.1 241 9.4
2010-05-27 07:28:53 51°17.578 2°50.841 31.6 0.1 135 9.4
2010-05-27 07:28:58 51°17.578 2°50.84 31.6 -999 302 9.5
2010-05-27 07:29:03 51°17.578 2°50.84 31.6 0.1 115 9.5
2010-05-27 07:29:08 51°17.578 2°50.84 31.8 0.1 324 9.5
2010-05-27 07:29:14 51°17.578 2°50.84 31.9 -999 345 9.4
2010-05-27 07:29:18 51°17.578 2°50.84 31.8 0.1 47 9.5
2010-05-27 07:29:23 51°17.578 2°50.84 31.9 0.1 6 9.5
2010-05-27 07:29:28 51°17.578 2°50.841 31.7 0.1 87 9.4
2010-05-27 07:29:33 51°17.578 2°50.841 31.9 -999 141 9.5
2010-05-27 07:29:38 51°17.578 2°50.84 32 -999 259 9.5
2010-05-27 07:29:43 51°17.578 2°50.841 31.9 0.1 120 9.7
2010-05-27 07:29:48 51°17.579 2°50.84 31.5 0.1 308 9.6
2010-05-27 07:29:53 51°17.579 2°50.84 31.3 -999 325 9.4
2010-05-27 07:29:58 51°17.579 2°50.84 31.1 0.1 303 9.5
2010-05-27 07:30:03 51°17.579 2°50.84 31 0.1 318 9.4
2010-05-27 07:30:08 51°17.579 2°50.84 30.6 0.1 299 9.4
2010-05-27 07:30:13 51°17.579 2°50.84 30.5 0.1 301 9.3
2010-05-27 07:30:18 51°17.579 2°50.84 30.3 -999 144 9.5
2010-05-27 07:30:23 51°17.579 2°50.839 29.8 0.2 284 9.5
2010-05-27 07:30:28 51°17.579 2°50.839 29.8 -999 134 9.5
2010-05-27 07:30:33 51°17.579 2°50.839 29.8 0.1 328 9.5
2010-05-27 07:30:38 51°17.579 2°50.839 29.8 -999 267 9.5
2010-05-27 07:30:43 51°17.579 2°50.839 29.8 0.2 295 9.5
2010-05-27 07:30:48 51°17.579 2°50.839 30.2 0.2 119 9.7
2010-05-27 07:30:53 51°17.579 2°50.839 30.6 0.2 302 9.4
2010-05-27 07:30:58 51°17.579 2°50.839 30.9 0.2 108 9.4
2010-05-27 07:31:03 51°17.579 2°50.839 31.5 0.1 316 9.4
2010-05-27 07:31:09 51°17.579 2°50.839 31.6 0.1 104 9.5
2010-05-27 07:31:14 51°17.579 2°50.84 32.1 0.1 322 9.6
2010-05-27 07:31:18 51°17.579 2°50.84 32.3 0.1 117 9.5
2010-05-27 07:31:23 51°17.579 2°50.84 32.9 -999 356 9.5
2010-05-27 07:31:28 51°17.579 2°50.84 32.9 -999 270 9.4
2010-05-27 07:31:33 51°17.579 2°50.84 33.1 -999 10 9.3
2010-05-27 07:31:38 51°17.579 2°50.84 33.3 0.1 100 9.5
2010-05-27 07:31:43 51°17.579 2°50.84 32.9 0.1 323 9.4
2010-05-27 07:31:48 51°17.579 2°50.84 33.1 0.2 122 9.6
2010-05-27 07:31:53 51°17.579 2°50.839 32.9 0.3 295 9.3
2010-05-27 07:31:58 51°17.579 2°50.84 32.8 0.3 129 9.6
2010-05-27 07:32:03 51°17.579 2°50.839 32.7 0.3 294 9.3
2010-05-27 07:32:08 51°17.579 2°50.84 32.7 0.3 121 9.6
2010-05-27 07:32:13 51°17.579 2°50.839 32.4 0.4 296 9.5
2010-05-27 07:32:18 51°17.579 2°50.84 32.5 0.3 122 9.5
2010-05-27 07:32:23 51°17.579 2°50.839 32.5 0.2 307 9.5
2010-05-27 07:32:28 51°17.579 2°50.84 32.2 0.2 130 9.6
2010-05-27 07:32:33 51°17.579 2°50.839 32.2 0.2 301 9.6
2010-05-27 07:32:38 51°17.579 2°50.84 32.5 0.2 118 9.5
2010-05-27 07:32:42 51°17.579 2°50.839 32.4 0.2 323 9.5
2010-05-27 07:32:48 51°17.579 2°50.84 32.4 0.1 113 9.5
2010-05-27 07:32:53 51°17.579 2°50.839 32.4 0.1 305 9.4
2010-05-27 07:32:58 51°17.579 2°50.839 32.4 0.1 113 9.2
2010-05-27 07:33:03 51°17.579 2°50.839 32.5 -999 20 9.4
2010-05-27 07:33:09 51°17.579 2°50.84 32.6 0.1 108 9.7
2010-05-27 07:33:14 51°17.579 2°50.839 32.1 0.2 292 9.3
2010-05-27 07:33:18 51°17.579 2°50.84 32.5 0.3 119 9.6
2010-05-27 07:33:23 51°17.579 2°50.839 32.2 0.2 286 9.8
2010-05-27 07:33:28 51°17.579 2°50.839 32.1 0.1 166 9.4
2010-05-27 07:33:33 51°17.579 2°50.839 32.2 0.2 302 9.4
2010-05-27 07:33:38 51°17.579 2°50.839 32.1 0.1 122 9.5
2010-05-27 07:33:43 51°17.579 2°50.839 32 0.2 299 9.5
2010-05-27 07:33:48 51°17.579 2°50.839 32 0.1 133 9.5
2010-05-27 07:33:53 51°17.58 2°50.839 31.9 0.2 289 9.5
2010-05-27 07:33:58 51°17.58 2°50.839 32 -999 125 9.4
2010-05-27 07:34:03 51°17.58 2°50.839 32 -999 290 9.3
2010-05-27 07:34:08 51°17.58 2°50.839 32 0.1 78 9.5
2010-05-27 07:34:13 51°17.58 2°50.839 31.9 0.1 314 9.4
2010-05-27 07:34:18 51°17.58 2°50.839 32 0.1 49 9.5
2010-05-27 07:34:22 51°17.58 2°50.839 32.1 0.1 305 9.5
2010-05-27 07:34:28 51°17.58 2°50.839 32.1 0.1 111 9.5
2010-05-27 07:34:33 51°17.58 2°50.839 32.4 0.1 322 9.5
2010-05-27 07:34:38 51°17.58 2°50.84 32.3 0.1 128 9.5
2010-05-27 07:34:43 51°17.58 2°50.84 32.5 -999 296 9.6
2010-05-27 07:34:48 51°17.58 2°50.84 32.5 -999 249 9.5
2010-05-27 07:34:53 51°17.58 2°50.84 32.8 0.2 111 9.6
2010-05-27 07:34:58 51°17.58 2°50.84 32.3 -999 250 9.5
2010-05-27 07:35:03 51°17.58 2°50.84 32.1 0.2 125 9.6
2010-05-27 07:35:08 51°17.58 2°50.84 32 0.3 297 9.5
2010-05-27 07:35:13 51°17.58 2°50.84 31.8 0.2 118 9.6
2010-05-27 07:35:18 51°17.58 2°50.84 31.8 0.2 267 9.7
2010-05-27 07:35:23 51°17.58 2°50.84 31.5 0.2 144 9.5
2010-05-27 07:35:28 51°17.58 2°50.84 31.8 0.2 287 9.4
2010-05-27 07:35:34 51°17.58 2°50.84 31.7 0.2 132 9.3
2010-05-27 07:35:38 51°17.58 2°50.84 31.6 0.1 239 9.6
2010-05-27 07:35:42 51°17.58 2°50.84 31.4 0.2 185 9.4
2010-05-27 07:35:48 51°17.579 2°50.84 31.7 0.1 254 9.5
2010-05-27 07:35:53 51°17.579 2°50.84 31.7 0.1 134 9.4
2010-05-27 07:35:58 51°17.579 2°50.84 31.7 0.1 188 9.6
2010-05-27 07:36:03 51°17.579 2°50.84 31.8 0.1 258 9.5
2010-05-27 07:36:08 51°17.579 2°50.84 32 0.2 118 9.7
2010-05-27 07:36:13 51°17.579 2°50.84 32 0.3 301 9.5
2010-05-27 07:36:18 51°17.579 2°50.84 32 0.3 115 9.4
2010-05-27 07:36:23 51°17.579 2°50.84 32.3 -999 5 9.6
2010-05-27 07:36:28 51°17.579 2°50.84 32 0.1 81 9.5
2010-05-27 07:36:33 51°17.58 2°50.84 32 0.1 359 9.4
2010-05-27 07:36:38 51°17.579 2°50.841 32 0.1 86 9.5
2010-05-27 07:36:43 51°17.58 2°50.84 31.9 0.1 320 9.6
2010-05-27 07:36:48 51°17.58 2°50.841 31.9 -999 4 9.5
2010-05-27 07:36:53 51°17.58 2°50.84 31.8 0.1 30 9.6
2010-05-27 07:36:58 51°17.58 2°50.84 31.4 0.1 317 9.5
2010-05-27 07:37:03 51°17.58 2°50.84 31 -999 306 9.6
2010-05-27 07:37:08 51°17.58 2°50.84 30.8 0.2 297 9.5
2010-05-27 07:37:13 51°17.58 2°50.84 30.4 0.1 318 9.4
2010-05-27 07:37:18 51°17.58 2°50.84 30 -999 6 9.4
2010-05-27 07:37:23 51°17.58 2°50.84 29.7 0.1 307 9.4
2010-05-27 07:37:28 51°17.58 2°50.839 29.5 0.2 299 9.5
2010-05-27 07:37:33 51°17.58 2°50.839 29.3 -999 29 9.5
2010-05-27 07:37:38 51°17.58 2°50.839 29.3 0.1 277 9.7
2010-05-27 07:37:43 51°17.58 2°50.839 29.1 0.1 303 9.5
2010-05-27 07:37:48 51°17.58 2°50.839 29.6 0.1 297 9.5
2010-05-27 07:37:53 51°17.58 2°50.839 29.6 -999 225 9.6
2010-05-27 07:37:58 51°17.58 2°50.839 30 -999 95 9.4
2010-05-27 07:38:03 51°17.58 2°50.839 30.4 0.1 100 9.5
2010-05-27 07:38:08 51°17.58 2°50.838 30.6 0.1 300 9.6
2010-05-27 07:38:13 51°17.58 2°50.839 31.1 0.1 114 9.6
2010-05-27 07:38:18 51°17.58 2°50.839 31.6 0.1 274 9.6
2010-05-27 07:38:23 51°17.58 2°50.839 31.8 0.1 154 9.6
2010-05-27 07:38:28 51°17.58 2°50.839 32.2 0.1 292 9.4
2010-05-27 07:38:33 51°17.58 2°50.839 32.7 0.1 106 9.5
2010-05-27 07:38:38 51°17.58 2°50.839 32.5 0.1 340 9.4
2010-05-27 07:38:43 51°17.58 2°50.839 32.8 0.1 104 9.5
2010-05-27 07:38:48 51°17.58 2°50.839 32.8 0.1 312 9.7
2010-05-27 07:38:53 51°17.58 2°50.839 32.9 -999 115 9.6
2010-05-27 07:38:58 51°17.58 2°50.839 33.4 -999 149 9.5
2010-05-27 07:39:03 51°17.58 2°50.839 33.5 0.2 122 9.7
2010-05-27 07:39:08 51°17.58 2°50.839 33.4 -999 236 9.6
2010-05-27 07:39:13 51°17.58 2°50.839 33.8 0.1 128 9.6
2010-05-27 07:39:18 51°17.58 2°50.839 34 0.1 112 9.5
2010-05-27 07:39:23 51°17.58 2°50.839 34.1 0.1 127 9.6
2010-05-27 07:39:28 51°17.58 2°50.839 34.2 -999 259 9.6
2010-05-27 07:39:33 51°17.579 2°50.839 34.2 0.1 139 9.6
2010-05-27 07:39:38 51°17.579 2°50.839 34.1 0.1 174 9.7
2010-05-27 07:39:43 51°17.579 2°50.839 33.9 0.1 178 9.4
2010-05-27 07:39:48 51°17.579 2°50.839 34.1 0.1 229 9.4
2010-05-27 07:39:53 51°17.579 2°50.839 34.1 0.2 154 9.6
2010-05-27 07:39:58 51°17.579 2°50.839 34.1 0.2 276 9.6
2010-05-27 07:40:02 51°17.578 2°50.839 33.8 0.1 185 9.7
2010-05-27 07:40:08 51°17.578 2°50.839 34.1 0.1 185 9.8
2010-05-27 07:40:13 51°17.578 2°50.839 33.7 0.1 252 9.6
2010-05-27 07:40:18 51°17.578 2°50.839 34.1 -999 335 9.7
2010-05-27 07:40:23 51°17.577 2°50.839 33.9 0.1 300 9.4
2010-05-27 07:40:28 51°17.577 2°50.839 34.2 0.2 107 9.5
2010-05-27 07:40:34 51°17.578 2°50.839 34.2 0.1 326 9.6
2010-05-27 07:40:38 51°17.577 2°50.84 34.1 0.2 102 9.6
2010-05-27 07:40:42 51°17.577 2°50.84 34.2 0.1 332 9.6
2010-05-27 07:40:48 51°17.577 2°50.84 34.2 0.1 72 9.5
2010-05-27 07:40:53 51°17.577 2°50.84 34.4 0.1 83 9.8
2010-05-27 07:40:58 51°17.578 2°50.84 34.2 0.2 321 9.6
2010-05-27 07:41:03 51°17.577 2°50.841 34.2 0.3 101 9.5
2010-05-27 07:41:08 51°17.578 2°50.84 34.5 0.1 19 9.6
2010-05-27 07:41:13 51°17.578 2°50.841 33.8 0.2 120 9.8
2010-05-27 07:41:18 51°17.578 2°50.84 34 0.1 300 9.9
2010-05-27 07:41:23 51°17.578 2°50.841 33.8 0.1 186 9.7
2010-05-27 07:41:28 51°17.578 2°50.84 33.8 0.1 285 9.4
2010-05-27 07:41:33 51°17.577 2°50.841 34.1 0.1 159 9.6
2010-05-27 07:41:38 51°17.578 2°50.84 33.7 0.1 293 9.5
2010-05-27 07:41:43 51°17.577 2°50.84 33.8 0.1 143 9.7
2010-05-27 07:41:48 51°17.577 2°50.84 33.5 0.2 280 9.5
2010-05-27 07:41:53 51°17.577 2°50.841 33.5 0.3 130 9.7
2010-05-27 07:41:58 51°17.577 2°50.84 32.9 0.2 274 9.6
2010-05-27 07:42:03 51°17.577 2°50.84 32.9 0.2 134 9.6
2010-05-27 07:42:08 51°17.577 2°50.84 32.7 0.2 290 9.5
2010-05-27 07:42:13 51°17.577 2°50.84 32.7 0.3 122 9.8
2010-05-27 07:42:18 51°17.577 2°50.839 32 0.2 279 9.4
2010-05-27 07:42:23 51°17.577 2°50.84 32.4 0.4 112 9.6
2010-05-27 07:42:28 51°17.577 2°50.839 32 0.4 296 9.6
2010-05-27 07:42:33 51°17.576 2°50.84 31.8 0.2 114 9.5
2010-05-27 07:42:38 51°17.577 2°50.839 31.8 0.3 301 9.5
2010-05-27 07:42:43 51°17.577 2°50.84 31.8 0.3 102 9.8
2010-05-27 07:42:48 51°17.577 2°50.839 31.4 0.3 303 9.5
2010-05-27 07:42:53 51°17.577 2°50.84 31.6 0.3 93 9.7
2010-05-27 07:42:58 51°17.577 2°50.84 31.4 0.3 308 9.5
2010-05-27 07:43:02 51°17.577 2°50.84 31.7 0.4 102 9.8
2010-05-27 07:43:08 51°17.578 2°50.839 31.4 0.5 303 9.6
2010-05-27 07:43:13 51°17.577 2°50.84 31.7 0.3 93 9.4
2010-05-27 07:43:18 51°17.578 2°50.84 31.8 0.1 327 9.5
2010-05-27 07:43:23 51°17.578 2°50.84 31.8 0.1 86 9.5
2010-05-27 07:43:28 51°17.577 2°50.84 31.7 0.2 286 9.4
2010-05-27 07:43:33 51°17.578 2°50.84 31.9 0.1 100 9.7
2010-05-27 07:43:38 51°17.578 2°50.84 31.8 0.1 148 9.8
2010-05-27 07:43:43 51°17.578 2°50.84 31.4 0.1 80 9.5
2010-05-27 07:43:48 51°17.578 2°50.839 31.7 0.1 288 9.5
2010-05-27 07:43:53 51°17.578 2°50.839 31.4 0.1 111 9.5
2010-05-27 07:43:58 51°17.578 2°50.839 31.6 -999 120 9.3
2010-05-27 07:44:03 51°17.578 2°50.839 31.7 0.2 116 9.5
2010-05-27 07:44:08 51°17.578 2°50.839 31.5 0.2 290 9.4
2010-05-27 07:44:14 51°17.577 2°50.839 31.5 0.2 136 9.7
2010-05-27 07:44:18 51°17.577 2°50.839 31.3 0.1 256 9.5
2010-05-27 07:44:23 51°17.577 2°50.839 31.4 0.3 116 9.6
2010-05-27 07:44:28 51°17.577 2°50.839 31.4 0.3 292 9.5
2010-05-27 07:44:33 51°17.577 2°50.839 31.6 0.2 131 9.5
2010-05-27 07:44:38 51°17.577 2°50.839 32 0.2 303 9.6
2010-05-27 07:44:43 51°17.577 2°50.84 31.7 0.1 107 9.6
2010-05-27 07:44:48 51°17.577 2°50.839 32 0.1 311 9.5
2010-05-27 07:44:53 51°17.577 2°50.84 32 0.1 113 9.5
2010-05-27 07:44:58 51°17.577 2°50.839 32.1 0.2 310 9.8
2010-05-27 07:45:03 51°17.577 2°50.84 32 0.1 292 9.7
2010-05-27 07:45:08 51°17.577 2°50.84 32.1 0.1 100 9.9
2010-05-27 07:45:13 51°17.577 2°50.839 31.8 0.1 307 9.6
2010-05-27 07:45:18 51°17.577 2°50.84 31.9 0.1 40 9.5
2010-05-27 07:45:23 51°17.577 2°50.84 32 -999 358 9.6
2010-05-27 07:45:28 51°17.577 2°50.84 31.9 -999 51 9.7
2010-05-27 07:45:33 51°17.578 2°50.84 31.9 -999 294 9.7
2010-05-27 07:45:38 51°17.578 2°50.839 31.8 0.1 316 9.6
2010-05-27 07:45:43 51°17.578 2°50.84 31.8 0.1 88 9.6
2010-05-27 07:45:48 51°17.578 2°50.839 31.5 0.1 318 9.7
2010-05-27 07:45:53 51°17.578 2°50.839 31.3 0.1 278 9.6
2010-05-27 07:45:58 51°17.578 2°50.839 31.3 0.1 316 9.4
2010-05-27 07:46:03 51°17.578 2°50.839 31.3 0.1 117 9.7
2010-05-27 07:46:08 51°17.578 2°50.839 31 0.2 311 9.6
2010-05-27 07:46:13 51°17.578 2°50.839 30.9 0.1 108 9.8
2010-05-27 07:46:18 51°17.578 2°50.838 30.6 0.3 296 9.7
2010-05-27 07:46:23 51°17.578 2°50.839 30.5 -999 279 9.5
2010-05-27 07:46:28 51°17.578 2°50.838 30.8 0.1 322 9.6
2010-05-27 07:46:33 51°17.578 2°50.838 30.6 -999 85 9.9
2010-05-27 07:46:38 51°17.578 2°50.838 30.5 0.2 292 9.5
2010-05-27 07:46:43 51°17.578 2°50.838 30.9 0.2 115 9.7
2010-05-27 07:46:48 51°17.578 2°50.838 31 0.2 291 9.7
2010-05-27 07:46:53 51°17.578 2°50.838 31.2 0.2 121 9.7